sensor_id;sensor_type;location;lat;lon;timestamp;P1;durP1;ratioP1;P2;durP2;ratioP2
60722;SDS011;46574;52.818;6.516;2023-03-01T00:01:18;24.52;;;19.50;;
60722;SDS011;46574;52.818;6.516;2023-03-01T00:03:46;25.08;;;18.60;;
60722;SDS011;46574;52.818;6.516;2023-03-01T00:06:12;24.55;;;19.50;;
60722;SDS011;46574;52.818;6.516;2023-03-01T00:08:38;20.55;;;17.77;;
60722;SDS011;46574;52.818;6.516;2023-03-01T00:11:08;21.30;;;19.00;;
60722;SDS011;46574;52.818;6.516;2023-03-01T00:13:38;23.80;;;19.65;;
60722;SDS011;46574;52.818;6.516;2023-03-01T00:16:06;22.90;;;18.50;;
60722;SDS011;46574;52.818;6.516;2023-03-01T00:18:33;21.00;;;18.40;;
60722;SDS011;46574;52.818;6.516;2023-03-01T00:20:59;19.33;;;16.92;;
60722;SDS011;46574;52.818;6.516;2023-03-01T00:23:25;22.63;;;17.85;;
60722;SDS011;46574;52.818;6.516;2023-03-01T00:25:50;18.35;;;15.65;;
60722;SDS011;46574;52.818;6.516;2023-03-01T00:28:16;19.92;;;16.85;;
60722;SDS011;46574;52.818;6.516;2023-03-01T00:30:42;21.23;;;18.00;;
60722;SDS011;46574;52.818;6.516;2023-03-01T00:33:08;23.00;;;18.90;;
60722;SDS011;46574;52.818;6.516;2023-03-01T00:35:34;19.90;;;16.95;;
60722;SDS011;46574;52.818;6.516;2023-03-01T00:38:00;21.77;;;19.20;;
60722;SDS011;46574;52.818;6.516;2023-03-01T00:40:26;20.70;;;18.00;;
60722;SDS011;46574;52.818;6.516;2023-03-01T00:42:53;22.50;;;17.15;;
60722;SDS011;46574;52.818;6.516;2023-03-01T00:45:19;21.20;;;17.50;;
60722;SDS011;46574;52.818;6.516;2023-03-01T00:47:45;21.92;;;17.35;;
60722;SDS011;46574;52.818;6.516;2023-03-01T00:50:11;21.58;;;17.95;;
60722;SDS011;46574;52.818;6.516;2023-03-01T00:52:37;19.38;;;17.13;;
60722;SDS011;46574;52.818;6.516;2023-03-01T00:55:03;24.83;;;18.23;;
60722;SDS011;46574;52.818;6.516;2023-03-01T00:57:30;22.10;;;18.80;;
60722;SDS011;46574;52.818;6.516;2023-03-01T00:59:56;28.00;;;20.55;;
60722;SDS011;46574;52.818;6.516;2023-03-01T01:02:22;24.15;;;19.48;;
60722;SDS011;46574;52.818;6.516;2023-03-01T01:04:48;22.98;;;19.02;;
60722;SDS011;46574;52.818;6.516;2023-03-01T01:07:14;24.30;;;19.08;;
60722;SDS011;46574;52.818;6.516;2023-03-01T01:09:40;28.30;;;21.08;;
60722;SDS011;46574;52.818;6.516;2023-03-01T01:12:05;27.80;;;21.23;;
60722;SDS011;46574;52.818;6.516;2023-03-01T01:14:31;22.80;;;19.67;;
60722;SDS011;46574;52.818;6.516;2023-03-01T01:16:57;24.92;;;20.35;;
60722;SDS011;46574;52.818;6.516;2023-03-01T01:19:23;29.85;;;21.85;;
60722;SDS011;46574;52.818;6.516;2023-03-01T01:21:50;31.60;;;22.25;;
60722;SDS011;46574;52.818;6.516;2023-03-01T01:24:16;29.85;;;22.25;;
60722;SDS011;46574;52.818;6.516;2023-03-01T01:26:42;30.88;;;22.42;;
60722;SDS011;46574;52.818;6.516;2023-03-01T01:29:08;29.33;;;22.85;;
60722;SDS011;46574;52.818;6.516;2023-03-01T01:31:35;30.20;;;22.83;;
60722;SDS011;46574;52.818;6.516;2023-03-01T01:34:02;31.60;;;22.73;;
60722;SDS011;46574;52.818;6.516;2023-03-01T01:36:30;40.30;;;22.30;;
60722;SDS011;46574;52.818;6.516;2023-03-01T01:38:56;63.70;;;24.20;;
60722;SDS011;46574;52.818;6.516;2023-03-01T01:41:22;72.13;;;24.52;;
60722;SDS011;46574;52.818;6.516;2023-03-01T01:44:09;73.95;;;25.40;;
60722;SDS011;46574;52.818;6.516;2023-03-01T01:46:39;66.90;;;25.60;;
60722;SDS011;46574;52.818;6.516;2023-03-01T01:49:31;87.00;;;27.33;;
60722;SDS011;46574;52.818;6.516;2023-03-01T01:57:40;49.17;;;24.13;;
60722;SDS011;46574;52.818;6.516;2023-03-01T02:00:11;57.42;;;24.10;;
60722;SDS011;46574;52.818;6.516;2023-03-01T02:02:40;53.95;;;22.40;;
60722;SDS011;46574;52.818;6.516;2023-03-01T02:05:12;44.88;;;22.63;;
60722;SDS011;46574;52.818;6.516;2023-03-01T02:07:45;43.40;;;24.03;;
60722;SDS011;46574;52.818;6.516;2023-03-01T02:10:13;48.70;;;23.10;;
60722;SDS011;46574;52.818;6.516;2023-03-01T02:12:39;64.85;;;23.73;;
60722;SDS011;46574;52.818;6.516;2023-03-01T02:15:05;80.85;;;24.38;;
60722;SDS011;46574;52.818;6.516;2023-03-01T02:17:31;79.57;;;22.65;;
60722;SDS011;46574;52.818;6.516;2023-03-01T02:22:46;52.75;;;22.20;;
60722;SDS011;46574;52.818;6.516;2023-03-01T02:27:48;30.17;;;18.65;;
60722;SDS011;46574;52.818;6.516;2023-03-01T02:30:33;30.65;;;18.80;;
60722;SDS011;46574;52.818;6.516;2023-03-01T02:33:00;29.30;;;18.65;;
60722;SDS011;46574;52.818;6.516;2023-03-01T02:35:33;29.73;;;17.50;;
60722;SDS011;46574;52.818;6.516;2023-03-01T02:38:02;25.58;;;18.25;;
60722;SDS011;46574;52.818;6.516;2023-03-01T02:40:31;24.20;;;16.52;;
60722;SDS011;46574;52.818;6.516;2023-03-01T02:42:59;27.23;;;18.75;;
60722;SDS011;46574;52.818;6.516;2023-03-01T02:45:25;34.47;;;19.65;;
60722;SDS011;46574;52.818;6.516;2023-03-01T02:47:56;24.10;;;19.58;;
60722;SDS011;46574;52.818;6.516;2023-03-01T02:50:33;23.27;;;19.33;;
60722;SDS011;46574;52.818;6.516;2023-03-01T02:53:16;24.23;;;20.23;;
60722;SDS011;46574;52.818;6.516;2023-03-01T02:56:07;23.17;;;20.25;;
60722;SDS011;46574;52.818;6.516;2023-03-01T02:58:39;21.75;;;18.60;;
60722;SDS011;46574;52.818;6.516;2023-03-01T03:01:10;18.45;;;16.42;;
60722;SDS011;46574;52.818;6.516;2023-03-01T03:03:40;21.10;;;18.70;;
60722;SDS011;46574;52.818;6.516;2023-03-01T03:06:06;21.50;;;19.20;;
60722;SDS011;46574;52.818;6.516;2023-03-01T03:08:32;18.20;;;15.88;;
60722;SDS011;46574;52.818;6.516;2023-03-01T03:10:58;20.17;;;17.40;;
60722;SDS011;46574;52.818;6.516;2023-03-01T03:13:24;18.77;;;16.63;;
60722;SDS011;46574;52.818;6.516;2023-03-01T03:15:53;17.98;;;16.05;;
60722;SDS011;46574;52.818;6.516;2023-03-01T03:18:21;21.30;;;17.48;;
60722;SDS011;46574;52.818;6.516;2023-03-01T03:20:47;23.05;;;19.13;;
60722;SDS011;46574;52.818;6.516;2023-03-01T03:23:17;25.73;;;18.45;;
60722;SDS011;46574;52.818;6.516;2023-03-01T03:25:47;20.70;;;17.98;;
60722;SDS011;46574;52.818;6.516;2023-03-01T03:28:16;27.50;;;19.63;;
60722;SDS011;46574;52.818;6.516;2023-03-01T03:30:42;53.67;;;20.80;;
60722;SDS011;46574;52.818;6.516;2023-03-01T03:33:10;40.90;;;20.95;;
60722;SDS011;46574;52.818;6.516;2023-03-01T03:35:43;22.27;;;19.02;;
60722;SDS011;46574;52.818;6.516;2023-03-01T03:38:11;22.20;;;18.70;;
60722;SDS011;46574;52.818;6.516;2023-03-01T03:40:43;20.75;;;18.55;;
60722;SDS011;46574;52.818;6.516;2023-03-01T03:43:11;17.85;;;16.00;;
60722;SDS011;46574;52.818;6.516;2023-03-01T03:45:39;21.95;;;18.63;;
60722;SDS011;46574;52.818;6.516;2023-03-01T03:48:06;21.33;;;18.58;;
60722;SDS011;46574;52.818;6.516;2023-03-01T03:50:33;20.60;;;17.23;;
60722;SDS011;46574;52.818;6.516;2023-03-01T03:53:03;19.70;;;17.55;;
60722;SDS011;46574;52.818;6.516;2023-03-01T03:55:30;19.58;;;17.38;;
60722;SDS011;46574;52.818;6.516;2023-03-01T03:57:59;18.85;;;16.85;;
60722;SDS011;46574;52.818;6.516;2023-03-01T04:00:31;18.67;;;16.50;;
60722;SDS011;46574;52.818;6.516;2023-03-01T04:02:58;17.63;;;15.45;;
60722;SDS011;46574;52.818;6.516;2023-03-01T04:05:24;18.15;;;16.02;;
60722;SDS011;46574;52.818;6.516;2023-03-01T04:07:50;18.85;;;16.25;;
60722;SDS011;46574;52.818;6.516;2023-03-01T04:10:26;18.98;;;16.67;;
60722;SDS011;46574;52.818;6.516;2023-03-01T04:12:53;18.27;;;16.35;;
60722;SDS011;46574;52.818;6.516;2023-03-01T04:15:21;18.67;;;16.67;;
60722;SDS011;46574;52.818;6.516;2023-03-01T04:17:49;18.13;;;16.25;;
60722;SDS011;46574;52.818;6.516;2023-03-01T04:20:20;18.08;;;16.17;;
60722;SDS011;46574;52.818;6.516;2023-03-01T04:23:01;17.67;;;15.80;;
60722;SDS011;46574;52.818;6.516;2023-03-01T04:25:41;17.40;;;15.43;;
60722;SDS011;46574;52.818;6.516;2023-03-01T04:28:21;17.80;;;15.90;;
60722;SDS011;46574;52.818;6.516;2023-03-01T04:30:49;17.73;;;15.82;;
60722;SDS011;46574;52.818;6.516;2023-03-01T04:33:15;19.48;;;16.58;;
60722;SDS011;46574;52.818;6.516;2023-03-01T04:35:41;18.70;;;16.33;;
60722;SDS011;46574;52.818;6.516;2023-03-01T04:38:07;20.33;;;16.92;;
60722;SDS011;46574;52.818;6.516;2023-03-01T04:40:33;21.58;;;17.85;;
60722;SDS011;46574;52.818;6.516;2023-03-01T04:42:59;19.02;;;16.98;;
60722;SDS011;46574;52.818;6.516;2023-03-01T04:45:25;18.33;;;16.30;;
60722;SDS011;46574;52.818;6.516;2023-03-01T04:47:50;18.08;;;16.17;;
60722;SDS011;46574;52.818;6.516;2023-03-01T04:50:19;17.15;;;15.35;;
60722;SDS011;46574;52.818;6.516;2023-03-01T04:52:46;17.00;;;15.20;;
60722;SDS011;46574;52.818;6.516;2023-03-01T04:55:12;19.38;;;16.45;;
60722;SDS011;46574;52.818;6.516;2023-03-01T04:57:38;19.42;;;16.48;;
60722;SDS011;46574;52.818;6.516;2023-03-01T05:00:05;18.80;;;15.98;;
60722;SDS011;46574;52.818;6.516;2023-03-01T05:02:45;16.70;;;14.52;;
60722;SDS011;46574;52.818;6.516;2023-03-01T05:05:13;15.95;;;14.10;;
60722;SDS011;46574;52.818;6.516;2023-03-01T05:07:39;17.17;;;14.95;;
60722;SDS011;46574;52.818;6.516;2023-03-01T05:10:05;16.95;;;15.05;;
60722;SDS011;46574;52.818;6.516;2023-03-01T05:12:31;17.17;;;15.32;;
60722;SDS011;46574;52.818;6.516;2023-03-01T05:14:56;17.02;;;15.23;;
60722;SDS011;46574;52.818;6.516;2023-03-01T05:17:23;20.88;;;17.00;;
60722;SDS011;46574;52.818;6.516;2023-03-01T05:19:49;18.77;;;16.42;;
60722;SDS011;46574;52.818;6.516;2023-03-01T05:22:15;20.00;;;16.80;;
60722;SDS011;46574;52.818;6.516;2023-03-01T05:24:41;20.30;;;17.83;;
60722;SDS011;46574;52.818;6.516;2023-03-01T05:27:07;20.25;;;16.90;;
60722;SDS011;46574;52.818;6.516;2023-03-01T05:29:33;20.73;;;17.55;;
60722;SDS011;46574;52.818;6.516;2023-03-01T05:32:00;21.05;;;17.25;;
60722;SDS011;46574;52.818;6.516;2023-03-01T05:34:31;20.23;;;17.00;;
60722;SDS011;46574;52.818;6.516;2023-03-01T05:36:58;19.02;;;16.13;;
60722;SDS011;46574;52.818;6.516;2023-03-01T05:39:25;20.95;;;18.50;;
60722;SDS011;46574;52.818;6.516;2023-03-01T05:41:52;23.20;;;18.67;;
60722;SDS011;46574;52.818;6.516;2023-03-01T05:44:23;21.45;;;17.67;;
60722;SDS011;46574;52.818;6.516;2023-03-01T05:46:50;20.02;;;17.08;;
60722;SDS011;46574;52.818;6.516;2023-03-01T05:49:16;23.95;;;19.60;;
60722;SDS011;46574;52.818;6.516;2023-03-01T05:51:42;19.23;;;16.38;;
60722;SDS011;46574;52.818;6.516;2023-03-01T05:54:12;21.73;;;18.00;;
60722;SDS011;46574;52.818;6.516;2023-03-01T05:56:38;19.13;;;15.27;;
60722;SDS011;46574;52.818;6.516;2023-03-01T05:59:04;19.35;;;15.68;;
60722;SDS011;46574;52.818;6.516;2023-03-01T06:01:30;17.63;;;15.48;;
60722;SDS011;46574;52.818;6.516;2023-03-01T06:04:00;20.20;;;16.52;;
60722;SDS011;46574;52.818;6.516;2023-03-01T06:06:26;22.70;;;19.10;;
60722;SDS011;46574;52.818;6.516;2023-03-01T06:08:51;21.30;;;19.02;;
60722;SDS011;46574;52.818;6.516;2023-03-01T06:11:18;19.70;;;16.08;;
60722;SDS011;46574;52.818;6.516;2023-03-01T06:13:44;18.60;;;16.60;;
60722;SDS011;46574;52.818;6.516;2023-03-01T06:16:11;19.00;;;16.17;;
60722;SDS011;46574;52.818;6.516;2023-03-01T06:18:37;22.23;;;18.80;;
60722;SDS011;46574;52.818;6.516;2023-03-01T06:21:03;22.02;;;17.90;;
60722;SDS011;46574;52.818;6.516;2023-03-01T06:23:30;23.67;;;17.92;;
60722;SDS011;46574;52.818;6.516;2023-03-01T06:25:56;24.63;;;19.30;;
60722;SDS011;46574;52.818;6.516;2023-03-01T06:28:22;24.35;;;18.55;;
60722;SDS011;46574;52.818;6.516;2023-03-01T06:30:48;26.30;;;19.85;;
60722;SDS011;46574;52.818;6.516;2023-03-01T06:33:14;25.77;;;19.23;;
60722;SDS011;46574;52.818;6.516;2023-03-01T06:35:40;23.20;;;18.45;;
60722;SDS011;46574;52.818;6.516;2023-03-01T06:38:07;25.25;;;20.02;;
60722;SDS011;46574;52.818;6.516;2023-03-01T06:40:32;26.25;;;18.88;;
60722;SDS011;46574;52.818;6.516;2023-03-01T06:43:00;22.10;;;17.20;;
60722;SDS011;46574;52.818;6.516;2023-03-01T06:45:26;19.48;;;17.15;;
60722;SDS011;46574;52.818;6.516;2023-03-01T06:47:51;23.13;;;18.13;;
60722;SDS011;46574;52.818;6.516;2023-03-01T06:50:17;24.60;;;19.80;;
60722;SDS011;46574;52.818;6.516;2023-03-01T06:52:43;21.10;;;17.27;;
60722;SDS011;46574;52.818;6.516;2023-03-01T06:55:10;24.70;;;19.88;;
60722;SDS011;46574;52.818;6.516;2023-03-01T06:57:37;24.13;;;18.60;;
60722;SDS011;46574;52.818;6.516;2023-03-01T07:00:03;22.25;;;18.85;;
60722;SDS011;46574;52.818;6.516;2023-03-01T07:02:30;26.48;;;20.25;;
60722;SDS011;46574;52.818;6.516;2023-03-01T07:04:55;24.50;;;19.60;;
60722;SDS011;46574;52.818;6.516;2023-03-01T07:07:21;25.08;;;19.27;;
60722;SDS011;46574;52.818;6.516;2023-03-01T07:09:48;20.88;;;16.90;;
60722;SDS011;46574;52.818;6.516;2023-03-01T07:12:14;24.73;;;20.08;;
60722;SDS011;46574;52.818;6.516;2023-03-01T07:14:39;19.88;;;17.52;;
60722;SDS011;46574;52.818;6.516;2023-03-01T07:17:05;22.70;;;17.55;;
60722;SDS011;46574;52.818;6.516;2023-03-01T07:19:31;22.02;;;18.27;;
60722;SDS011;46574;52.818;6.516;2023-03-01T07:21:57;24.23;;;18.30;;
60722;SDS011;46574;52.818;6.516;2023-03-01T07:24:23;22.08;;;17.42;;
60722;SDS011;46574;52.818;6.516;2023-03-01T07:26:49;24.27;;;18.73;;
60722;SDS011;46574;52.818;6.516;2023-03-01T07:29:17;23.38;;;18.45;;
60722;SDS011;46574;52.818;6.516;2023-03-01T07:31:43;20.05;;;17.45;;
60722;SDS011;46574;52.818;6.516;2023-03-01T07:34:09;21.88;;;18.23;;
60722;SDS011;46574;52.818;6.516;2023-03-01T07:36:35;24.38;;;18.63;;
60722;SDS011;46574;52.818;6.516;2023-03-01T07:39:02;25.85;;;19.65;;
60722;SDS011;46574;52.818;6.516;2023-03-01T07:41:28;25.00;;;20.25;;
60722;SDS011;46574;52.818;6.516;2023-03-01T07:43:54;28.75;;;20.90;;
60722;SDS011;46574;52.818;6.516;2023-03-01T07:46:20;27.77;;;20.58;;
60722;SDS011;46574;52.818;6.516;2023-03-01T07:48:46;27.45;;;20.23;;
60722;SDS011;46574;52.818;6.516;2023-03-01T07:51:12;28.42;;;20.88;;
60722;SDS011;46574;52.818;6.516;2023-03-01T07:53:38;23.33;;;19.02;;
60722;SDS011;46574;52.818;6.516;2023-03-01T07:56:04;23.63;;;17.45;;
60722;SDS011;46574;52.818;6.516;2023-03-01T07:58:38;26.08;;;18.73;;
60722;SDS011;46574;52.818;6.516;2023-03-01T08:01:07;27.33;;;20.05;;
60722;SDS011;46574;52.818;6.516;2023-03-01T08:03:35;27.25;;;19.98;;
60722;SDS011;46574;52.818;6.516;2023-03-01T08:06:01;30.50;;;22.77;;
60722;SDS011;46574;52.818;6.516;2023-03-01T08:08:28;31.20;;;21.75;;
60722;SDS011;46574;52.818;6.516;2023-03-01T08:10:57;33.05;;;24.17;;
60722;SDS011;46574;52.818;6.516;2023-03-01T08:13:24;27.20;;;21.65;;
60722;SDS011;46574;52.818;6.516;2023-03-01T08:15:50;37.15;;;26.00;;
60722;SDS011;46574;52.818;6.516;2023-03-01T08:18:17;39.55;;;28.55;;
60722;SDS011;46574;52.818;6.516;2023-03-01T08:20:43;47.17;;;31.10;;
60722;SDS011;46574;52.818;6.516;2023-03-01T08:23:09;44.85;;;30.48;;
60722;SDS011;46574;52.818;6.516;2023-03-01T08:25:36;40.17;;;29.25;;
60722;SDS011;46574;52.818;6.516;2023-03-01T08:28:02;42.53;;;30.02;;
60722;SDS011;46574;52.818;6.516;2023-03-01T08:30:27;39.97;;;28.98;;
60722;SDS011;46574;52.818;6.516;2023-03-01T08:32:53;40.80;;;28.70;;
60722;SDS011;46574;52.818;6.516;2023-03-01T08:35:20;38.45;;;29.88;;
60722;SDS011;46574;52.818;6.516;2023-03-01T08:37:46;41.88;;;31.77;;
60722;SDS011;46574;52.818;6.516;2023-03-01T08:40:12;39.42;;;29.48;;
60722;SDS011;46574;52.818;6.516;2023-03-01T08:42:38;42.30;;;30.33;;
60722;SDS011;46574;52.818;6.516;2023-03-01T08:45:06;39.85;;;31.33;;
60722;SDS011;46574;52.818;6.516;2023-03-01T08:47:32;43.00;;;29.00;;
60722;SDS011;46574;52.818;6.516;2023-03-01T08:49:58;36.00;;;26.73;;
60722;SDS011;46574;52.818;6.516;2023-03-01T08:52:25;43.08;;;31.48;;
60722;SDS011;46574;52.818;6.516;2023-03-01T08:54:51;42.88;;;30.77;;
60722;SDS011;46574;52.818;6.516;2023-03-01T08:57:17;38.60;;;28.35;;
60722;SDS011;46574;52.818;6.516;2023-03-01T08:59:42;41.65;;;30.65;;
60722;SDS011;46574;52.818;6.516;2023-03-01T09:02:12;39.83;;;29.77;;
60722;SDS011;46574;52.818;6.516;2023-03-01T09:04:39;37.22;;;28.98;;
60722;SDS011;46574;52.818;6.516;2023-03-01T09:07:05;37.22;;;29.30;;
60722;SDS011;46574;52.818;6.516;2023-03-01T09:09:31;41.63;;;30.35;;
60722;SDS011;46574;52.818;6.516;2023-03-01T09:11:57;36.60;;;28.55;;
60722;SDS011;46574;52.818;6.516;2023-03-01T09:14:23;42.28;;;29.75;;
60722;SDS011;46574;52.818;6.516;2023-03-01T09:16:49;39.60;;;28.98;;
60722;SDS011;46574;52.818;6.516;2023-03-01T09:19:15;38.90;;;28.63;;
60722;SDS011;46574;52.818;6.516;2023-03-01T09:21:41;41.70;;;29.20;;
60722;SDS011;46574;52.818;6.516;2023-03-01T09:24:16;39.30;;;28.65;;
60722;SDS011;46574;52.818;6.516;2023-03-01T09:26:42;39.97;;;28.45;;
60722;SDS011;46574;52.818;6.516;2023-03-01T09:29:11;35.20;;;26.25;;
60722;SDS011;46574;52.818;6.516;2023-03-01T09:31:37;30.77;;;22.15;;
60722;SDS011;46574;52.818;6.516;2023-03-01T09:34:03;30.27;;;22.85;;
60722;SDS011;46574;52.818;6.516;2023-03-01T09:36:29;27.02;;;20.88;;
60722;SDS011;46574;52.818;6.516;2023-03-01T09:38:54;31.13;;;21.40;;
60722;SDS011;46574;52.818;6.516;2023-03-01T09:41:26;31.08;;;21.83;;
60722;SDS011;46574;52.818;6.516;2023-03-01T09:46:53;24.83;;;16.02;;
60722;SDS011;46574;52.818;6.516;2023-03-01T09:49:26;18.52;;;14.10;;
60722;SDS011;46574;52.818;6.516;2023-03-01T09:54:23;13.33;;;10.60;;
60722;SDS011;46574;52.818;6.516;2023-03-01T09:57:13;12.52;;;9.73;;
60722;SDS011;46574;52.818;6.516;2023-03-01T10:08:02;13.25;;;10.23;;
60722;SDS011;46574;52.818;6.516;2023-03-01T10:10:44;9.52;;;8.48;;
60722;SDS011;46574;52.818;6.516;2023-03-01T10:13:29;11.13;;;8.77;;
60722;SDS011;46574;52.818;6.516;2023-03-01T10:16:08;10.57;;;7.40;;
60722;SDS011;46574;52.818;6.516;2023-03-01T10:18:50;8.93;;;7.05;;
60722;SDS011;46574;52.818;6.516;2023-03-01T10:21:20;9.05;;;7.72;;
60722;SDS011;46574;52.818;6.516;2023-03-01T10:23:46;10.05;;;7.38;;
60722;SDS011;46574;52.818;6.516;2023-03-01T10:29:02;7.95;;;6.10;;
60722;SDS011;46574;52.818;6.516;2023-03-01T10:34:50;8.57;;;6.53;;
60722;SDS011;46574;52.818;6.516;2023-03-01T10:37:08;8.65;;;6.53;;
60722;SDS011;46574;52.818;6.516;2023-03-01T10:42:37;8.95;;;7.13;;
60722;SDS011;46574;52.818;6.516;2023-03-01T10:48:28;8.57;;;6.95;;
60722;SDS011;46574;52.818;6.516;2023-03-01T10:51:14;7.03;;;6.28;;
60722;SDS011;46574;52.818;6.516;2023-03-01T10:53:42;8.90;;;7.18;;
60722;SDS011;46574;52.818;6.516;2023-03-01T10:56:14;8.95;;;7.35;;
60722;SDS011;46574;52.818;6.516;2023-03-01T10:58:41;9.70;;;7.93;;
60722;SDS011;46574;52.818;6.516;2023-03-01T11:06:57;11.68;;;6.95;;
60722;SDS011;46574;52.818;6.516;2023-03-01T11:09:24;7.80;;;6.97;;
60722;SDS011;46574;52.818;6.516;2023-03-01T11:11:53;8.55;;;6.88;;
60722;SDS011;46574;52.818;6.516;2023-03-01T11:14:22;8.27;;;6.63;;
60722;SDS011;46574;52.818;6.516;2023-03-01T11:16:59;8.82;;;6.28;;
60722;SDS011;46574;52.818;6.516;2023-03-01T11:19:26;7.60;;;6.03;;
60722;SDS011;46574;52.818;6.516;2023-03-01T11:24:33;9.52;;;7.03;;
60722;SDS011;46574;52.818;6.516;2023-03-01T11:27:26;10.40;;;7.03;;
60722;SDS011;46574;52.818;6.516;2023-03-01T11:30:00;8.18;;;6.50;;
60722;SDS011;46574;52.818;6.516;2023-03-01T11:33:05;8.85;;;6.63;;
60722;SDS011;46574;52.818;6.516;2023-03-01T11:35:53;8.32;;;6.60;;
60722;SDS011;46574;52.818;6.516;2023-03-01T11:38:25;7.90;;;6.07;;
60722;SDS011;46574;52.818;6.516;2023-03-01T11:41:02;6.47;;;5.80;;
60722;SDS011;46574;52.818;6.516;2023-03-01T11:51:38;7.88;;;7.07;;
60722;SDS011;46574;52.818;6.516;2023-03-01T11:57:19;10.98;;;6.82;;
60722;SDS011;46574;52.818;6.516;2023-03-01T12:06:00;8.77;;;7.18;;
60722;SDS011;46574;52.818;6.516;2023-03-01T12:11:22;13.60;;;9.07;;
60722;SDS011;46574;52.818;6.516;2023-03-01T12:19:14;11.43;;;9.43;;
60722;SDS011;46574;52.818;6.516;2023-03-01T12:35:53;11.07;;;8.45;;
60722;SDS011;46574;52.818;6.516;2023-03-01T12:44:00;11.95;;;10.40;;
60722;SDS011;46574;52.818;6.516;2023-03-01T12:47:25;11.85;;;9.75;;
60722;SDS011;46574;52.818;6.516;2023-03-01T12:49:36;10.70;;;9.35;;
60722;SDS011;46574;52.818;6.516;2023-03-01T12:52:11;12.60;;;9.45;;
60722;SDS011;46574;52.818;6.516;2023-03-01T13:11:17;9.52;;;7.43;;
60722;SDS011;46574;52.818;6.516;2023-03-01T13:13:44;9.85;;;7.80;;
60722;SDS011;46574;52.818;6.516;2023-03-01T13:16:21;10.60;;;8.27;;
60722;SDS011;46574;52.818;6.516;2023-03-01T13:19:05;9.90;;;7.50;;
60722;SDS011;46574;52.818;6.516;2023-03-01T13:21:52;8.77;;;7.70;;
60722;SDS011;46574;52.818;6.516;2023-03-01T13:32:24;9.82;;;7.70;;
60722;SDS011;46574;52.818;6.516;2023-03-01T13:34:54;8.63;;;7.60;;
60722;SDS011;46574;52.818;6.516;2023-03-01T13:37:23;9.52;;;7.72;;
60722;SDS011;46574;52.818;6.516;2023-03-01T13:39:51;8.70;;;7.78;;
60722;SDS011;46574;52.818;6.516;2023-03-01T13:45:16;9.80;;;8.25;;
60722;SDS011;46574;52.818;6.516;2023-03-01T13:47:51;9.07;;;7.72;;
60722;SDS011;46574;52.818;6.516;2023-03-01T13:50:31;9.68;;;7.40;;
60722;SDS011;46574;52.818;6.516;2023-03-01T13:53:03;9.18;;;7.50;;
60722;SDS011;46574;52.818;6.516;2023-03-01T14:03:28;9.30;;;8.32;;
60722;SDS011;46574;52.818;6.516;2023-03-01T14:08:27;11.00;;;9.13;;
60722;SDS011;46574;52.818;6.516;2023-03-01T14:11:13;11.05;;;8.70;;
60722;SDS011;46574;52.818;6.516;2023-03-01T14:13:55;11.00;;;8.80;;
60722;SDS011;46574;52.818;6.516;2023-03-01T14:19:57;10.43;;;9.27;;
60722;SDS011;46574;52.818;6.516;2023-03-01T14:22:31;10.38;;;9.27;;
60722;SDS011;46574;52.818;6.516;2023-03-01T14:25:06;9.65;;;8.57;;
60722;SDS011;46574;52.818;6.516;2023-03-01T14:27:44;11.02;;;9.10;;
60722;SDS011;46574;52.818;6.516;2023-03-01T14:30:37;10.27;;;9.15;;
60722;SDS011;46574;52.818;6.516;2023-03-01T14:33:05;9.82;;;8.80;;
60722;SDS011;46574;52.818;6.516;2023-03-01T14:35:51;10.98;;;9.63;;
60722;SDS011;46574;52.818;6.516;2023-03-01T14:38:37;11.40;;;9.70;;
60722;SDS011;46574;52.818;6.516;2023-03-01T14:41:09;13.55;;;10.68;;
60722;SDS011;46574;52.818;6.516;2023-03-01T14:43:46;10.80;;;9.43;;
60722;SDS011;46574;52.818;6.516;2023-03-01T14:46:35;9.80;;;8.60;;
60722;SDS011;46574;52.818;6.516;2023-03-01T14:49:04;12.70;;;9.68;;
60722;SDS011;46574;52.818;6.516;2023-03-01T14:51:40;10.30;;;8.68;;
60722;SDS011;46574;52.818;6.516;2023-03-01T14:54:18;10.63;;;8.38;;
60722;SDS011;46574;52.818;6.516;2023-03-01T14:56:46;11.02;;;9.70;;
60722;SDS011;46574;52.818;6.516;2023-03-01T14:59:12;10.73;;;8.93;;
60722;SDS011;46574;52.818;6.516;2023-03-01T15:01:39;10.43;;;9.18;;
60722;SDS011;46574;52.818;6.516;2023-03-01T15:04:06;12.23;;;8.70;;
60722;SDS011;46574;52.818;6.516;2023-03-01T15:06:36;10.98;;;9.45;;
60722;SDS011;46574;52.818;6.516;2023-03-01T15:09:03;11.68;;;8.85;;
60722;SDS011;46574;52.818;6.516;2023-03-01T15:11:30;11.10;;;9.77;;
60722;SDS011;46574;52.818;6.516;2023-03-01T15:13:58;10.55;;;9.40;;
60722;SDS011;46574;52.818;6.516;2023-03-01T15:19:00;11.30;;;9.20;;
60722;SDS011;46574;52.818;6.516;2023-03-01T15:21:33;11.82;;;9.10;;
60722;SDS011;46574;52.818;6.516;2023-03-01T15:29:22;11.85;;;9.40;;
60722;SDS011;46574;52.818;6.516;2023-03-01T15:32:37;11.05;;;8.65;;
60722;SDS011;46574;52.818;6.516;2023-03-01T15:34:51;10.57;;;8.70;;
60722;SDS011;46574;52.818;6.516;2023-03-01T15:38:02;10.02;;;8.68;;
60722;SDS011;46574;52.818;6.516;2023-03-01T15:46:05;11.60;;;8.95;;
60722;SDS011;46574;52.818;6.516;2023-03-01T15:48:46;9.77;;;8.07;;
60722;SDS011;46574;52.818;6.516;2023-03-01T15:51:14;9.63;;;8.20;;
60722;SDS011;46574;52.818;6.516;2023-03-01T15:53:41;10.77;;;8.70;;
60722;SDS011;46574;52.818;6.516;2023-03-01T15:56:13;10.65;;;8.50;;
60722;SDS011;46574;52.818;6.516;2023-03-01T15:58:38;11.18;;;9.40;;
60722;SDS011;46574;52.818;6.516;2023-03-01T16:01:08;11.90;;;8.45;;
60722;SDS011;46574;52.818;6.516;2023-03-01T16:03:37;10.10;;;9.00;;
60722;SDS011;46574;52.818;6.516;2023-03-01T16:06:03;9.70;;;8.40;;
60722;SDS011;46574;52.818;6.516;2023-03-01T16:08:29;11.13;;;8.63;;
60722;SDS011;46574;52.818;6.516;2023-03-01T16:10:55;11.18;;;9.05;;
60722;SDS011;46574;52.818;6.516;2023-03-01T16:13:21;11.38;;;9.57;;
60722;SDS011;46574;52.818;6.516;2023-03-01T16:15:46;10.02;;;8.95;;
60722;SDS011;46574;52.818;6.516;2023-03-01T16:18:12;12.48;;;9.88;;
60722;SDS011;46574;52.818;6.516;2023-03-01T16:20:38;11.38;;;9.50;;
60722;SDS011;46574;52.818;6.516;2023-03-01T16:23:05;11.75;;;9.88;;
60722;SDS011;46574;52.818;6.516;2023-03-01T16:25:32;14.70;;;9.63;;
60722;SDS011;46574;52.818;6.516;2023-03-01T16:27:58;11.13;;;9.63;;
60722;SDS011;46574;52.818;6.516;2023-03-01T16:30:28;10.50;;;9.40;;
60722;SDS011;46574;52.818;6.516;2023-03-01T16:32:54;12.45;;;10.77;;
60722;SDS011;46574;52.818;6.516;2023-03-01T16:35:20;11.27;;;10.02;;
60722;SDS011;46574;52.818;6.516;2023-03-01T16:37:47;12.48;;;10.48;;
60722;SDS011;46574;52.818;6.516;2023-03-01T16:40:18;12.93;;;10.60;;
60722;SDS011;46574;52.818;6.516;2023-03-01T16:42:46;12.48;;;10.50;;
60722;SDS011;46574;52.818;6.516;2023-03-01T16:45:16;14.23;;;11.63;;
60722;SDS011;46574;52.818;6.516;2023-03-01T16:47:42;13.35;;;10.90;;
60722;SDS011;46574;52.818;6.516;2023-03-01T16:50:08;11.77;;;10.48;;
60722;SDS011;46574;52.818;6.516;2023-03-01T16:52:34;14.05;;;10.93;;
60722;SDS011;46574;52.818;6.516;2023-03-01T16:55:02;13.35;;;11.10;;
60722;SDS011;46574;52.818;6.516;2023-03-01T16:57:28;13.85;;;10.63;;
60722;SDS011;46574;52.818;6.516;2023-03-01T16:59:55;14.07;;;11.35;;
60722;SDS011;46574;52.818;6.516;2023-03-01T17:02:20;12.23;;;10.20;;
60722;SDS011;46574;52.818;6.516;2023-03-01T17:04:53;13.13;;;10.18;;